Terminal Aerodrome Forecast
Issued by NWS Louisville, KY

Home | Current Version | Previous Version | Text Only | Print | Product List | Glossary On
Versions: 1 2 3 4 5 6 7 8 9 10 11 12 13 14 15 16 17 18 19 20 21 22
000
FTUS43 KLMK 192320
TAFBWG
TAF
KBWG 192320Z 2000/2024 23005KT P6SM SCT040
     FM200400 00000KT 5SM BR SCT150
     FM200700 00000KT 3SM BR FEW040 SCT150
     FM200900 00000KT 2SM BR SCT004 SCT150
      TEMPO 2009/2012 1/2SM FG
     FM201400 22004KT P6SM FEW040 SCT110=

USA.gov is the U.S. government's official web portal to all federal, state and local government web resources and services.